Time;durP1;ratioP1;P1;durP2;ratioP2;P2;SDS_P1;SDS_P2;PMS_P1;PMS_P2;Temp;Humidity;BMP_temperature;BMP_pressure;BME280_temperature;BME280_humidity;BME280_pressure;Samples;Min_cycle;Max_cycle;Signal;HPM_P1;HPM_P2
2022/11/08 00:01:50;;;;;;;16.35;3.38;;;12.30;99.90;;;;;;4918573;29;20428;-63
2022/11/08 00:04:17;;;;;;;13.80;3.75;;;12.60;99.90;;;;;;4922514;29;20417;-64
2022/11/08 00:14:57;;;;;;;13.85;4.25;;;12.60;99.90;;;;;;4924359;29;20063;-64
2022/11/08 00:17:25;;;;;;;12.82;3.55;;;12.50;99.90;;;;;;4925769;29;20480;-64
2022/11/08 00:19:51;;;;;;;14.73;3.53;;;12.50;99.90;;;;;;4924504;29;20036;-64
2022/11/08 00:22:17;;;;;;;13.35;3.60;;;12.30;99.90;;;;;;4926171;29;20040;-64
2022/11/08 00:24:44;;;;;;;13.27;3.80;;;12.60;99.90;;;;;;4924939;29;20058;-64
2022/11/08 00:27:18;;;;;;;13.02;3.38;;;12.40;99.90;;;;;;4925225;29;20044;-64
2022/11/08 00:29:44;;;;;;;14.07;4.50;;;12.40;99.90;;;;;;4925357;29;20088;-64
2022/11/08 00:32:16;;;;;;;11.80;3.15;;;12.60;99.90;;;;;;4924746;29;20602;-64
2022/11/08 00:34:41;;;;;;;13.70;3.50;;;12.70;99.90;;;;;;4925831;29;20060;-64
2022/11/08 00:37:07;;;;;;;14.98;4.38;;;12.50;99.90;;;;;;4924381;29;20453;-64
2022/11/08 00:39:33;;;;;;;11.82;3.45;;;12.70;99.90;;;;;;4925886;29;20099;-64
2022/11/08 00:41:59;;;;;;;12.98;2.97;;;12.40;99.90;;;;;;4924236;29;20052;-65
2022/11/08 00:44:24;;;;;;;16.75;3.22;;;12.40;99.90;;;;;;4925440;29;20055;-64
2022/11/08 00:46:51;;;;;;;13.95;3.00;;;12.70;99.90;;;;;;4925049;29;20051;-64
2022/11/08 00:49:16;;;;;;;15.10;3.15;;;12.40;99.90;;;;;;4924448;29;20081;-64
2022/11/08 00:51:42;;;;;;;15.77;3.47;;;12.40;99.90;;;;;;4925384;29;20048;-65
2022/11/08 00:54:14;;;;;;;16.20;3.92;;;12.50;99.90;;;;;;4924071;29;20103;-64
2022/11/08 00:56:40;;;;;;;12.13;3.33;;;12.50;99.90;;;;;;4925662;29;20036;-64
2022/11/08 00:59:06;;;;;;;17.25;4.18;;;12.40;99.90;;;;;;4924474;29;20055;-64
2022/11/08 01:01:31;;;;;;;12.20;3.40;;;12.60;99.90;;;;;;4925165;29;20048;-64
2022/11/08 01:03:57;;;;;;;13.75;3.72;;;12.40;99.90;;;;;;4924930;29;20044;-64
2022/11/08 01:06:24;;;;;;;12.10;3.63;;;12.60;99.90;;;;;;4924405;29;20052;-64
2022/11/08 01:08:50;;;;;;;11.35;3.40;;;12.60;99.90;;;;;;4925275;29;20044;-64
2022/11/08 01:11:18;;;;;;;11.00;3.28;;;12.70;99.90;;;;;;4923848;29;20048;-64
2022/11/08 01:13:45;;;;;;;15.63;3.78;;;12.60;99.90;;;;;;4908424;29;20040;-64
2022/11/08 01:16:18;;;;;;;12.27;3.25;;;12.60;99.90;;;;;;4924398;29;20058;-65
2022/11/08 01:18:46;;;;;;;14.32;3.13;;;12.60;99.90;;;;;;4924275;29;20048;-65
2022/11/08 01:21:12;;;;;;;14.43;4.13;;;12.60;99.90;;;;;;4921725;29;20036;-65
2022/11/08 01:23:39;;;;;;;9.85;3.03;;;12.60;99.90;;;;;;4906729;29;20047;-64
2022/11/08 01:26:07;;;;;;;14.30;2.95;;;12.50;99.90;;;;;;4907557;29;20501;-64
2022/11/08 01:28:34;;;;;;;12.02;2.85;;;12.40;99.90;;;;;;4923766;29;20055;-65
2022/11/08 01:31:20;;;;;;;15.07;3.30;;;12.40;99.90;;;;;;4924703;29;20076;-64
2022/11/08 01:33:46;;;;;;;12.40;2.90;;;12.60;99.90;;;;;;4921880;29;20065;-63
2022/11/08 01:36:15;;;;;;;10.63;2.95;;;12.40;99.90;;;;;;4923352;29;20396;-63
2022/11/08 01:38:41;;;;;;;11.48;3.60;;;12.60;99.90;;;;;;4924420;29;20048;-64
2022/11/08 01:41:09;;;;;;;11.75;2.90;;;12.60;99.90;;;;;;4905498;29;20130;-63
2022/11/08 01:43:37;;;;;;;15.10;3.58;;;12.50;99.90;;;;;;4924304;29;20176;-64
2022/11/08 01:46:15;;;;;;;13.80;3.47;;;12.50;99.90;;;;;;4906194;29;20107;-63
2022/11/08 01:49:19;;;;;;;11.73;3.10;;;12.30;99.90;;;;;;4924379;29;20084;-63
2022/11/08 01:51:50;;;;;;;11.00;3.17;;;12.40;99.90;;;;;;4920114;29;20067;-64
2022/11/08 01:54:20;;;;;;;13.63;3.05;;;12.40;99.90;;;;;;4923356;29;20048;-64
2022/11/08 01:56:46;;;;;;;11.55;2.65;;;12.20;99.90;;;;;;4924466;29;20076;-63
2022/11/08 01:59:15;;;;;;;14.88;3.05;;;12.30;99.90;;;;;;4923528;29;20123;-63
2022/11/08 02:01:41;;;;;;;13.57;2.90;;;12.20;99.90;;;;;;4905943;29;20508;-64
2022/11/08 02:04:07;;;;;;;18.67;3.88;;;12.40;99.90;;;;;;4923436;29;20040;-64
2022/11/08 02:06:36;;;;;;;12.40;2.83;;;12.30;99.90;;;;;;4905968;29;20131;-64
2022/11/08 02:09:06;;;;;;;11.68;2.83;;;12.40;99.90;;;;;;4924415;29;20080;-64
2022/11/08 02:11:33;;;;;;;10.23;2.85;;;12.10;99.90;;;;;;4921842;29;20092;-64
2022/11/08 02:13:59;;;;;;;13.35;2.78;;;12.20;99.90;;;;;;4924202;29;20393;-64
2022/11/08 02:16:24;;;;;;;9.82;2.50;;;12.30;99.90;;;;;;4922295;29;20070;-64
2022/11/08 02:18:50;;;;;;;13.63;3.25;;;12.20;99.90;;;;;;4922975;29;20040;-64
2022/11/08 02:21:20;;;;;;;11.48;2.75;;;12.20;99.90;;;;;;4923302;29;20465;-64
2022/11/08 02:23:55;;;;;;;16.63;3.03;;;12.20;99.90;;;;;;4921966;29;20083;-64
2022/11/08 02:26:27;;;;;;;13.60;3.60;;;12.20;99.90;;;;;;4923646;29;20044;-64
2022/11/08 02:28:54;;;;;;;11.40;2.80;;;12.10;99.90;;;;;;4923141;29;20051;-63
2022/11/08 02:31:20;;;;;;;13.38;2.88;;;12.20;99.90;;;;;;4923843;29;20063;-64
2022/11/08 02:33:47;;;;;;;14.65;4.93;;;12.10;99.90;;;;;;4922301;29;20048;-63
2022/11/08 02:36:18;;;;;;;16.52;3.50;;;12.20;99.90;;;;;;4922018;29;20048;-64
2022/11/08 02:38:51;;;;;;;12.73;3.28;;;11.90;99.90;;;;;;4921999;29;20063;-64
2022/11/08 02:41:17;;;;;;;10.95;2.88;;;12.00;99.90;;;;;;4921981;29;20104;-64
2022/11/08 02:43:42;;;;;;;15.38;3.00;;;12.00;99.90;;;;;;4923879;29;20051;-63
2022/11/08 02:46:08;;;;;;;9.57;2.58;;;11.80;99.90;;;;;;4905756;29;20056;-62
2022/11/08 02:48:34;;;;;;;11.85;2.92;;;11.90;99.90;;;;;;4923314;29;20425;-64
2022/11/08 02:50:59;;;;;;;13.45;3.25;;;11.80;99.90;;;;;;4922982;29;20304;-63
2022/11/08 02:53:25;;;;;;;12.57;3.30;;;11.90;99.90;;;;;;4922608;29;20048;-64
2022/11/08 02:55:51;;;;;;;10.75;2.85;;;12.00;99.90;;;;;;4923451;29;20043;-63
2022/11/08 02:58:16;;;;;;;11.23;2.85;;;11.90;99.90;;;;;;4921720;29;20134;-64
2022/11/08 03:00:42;;;;;;;13.18;2.88;;;11.90;99.90;;;;;;4906744;29;20063;-63
2022/11/08 03:03:08;;;;;;;9.95;2.70;;;11.90;99.90;;;;;;4922120;29;20079;-63
2022/11/08 03:05:33;;;;;;;14.30;2.78;;;11.70;99.90;;;;;;4923038;29;20059;-64
2022/11/08 03:07:59;;;;;;;12.48;2.80;;;11.80;99.90;;;;;;4922661;29;20400;-62
2022/11/08 03:10:26;;;;;;;13.10;2.90;;;11.80;99.90;;;;;;4922375;29;20131;-64
2022/11/08 03:13:00;;;;;;;10.90;3.50;;;11.70;99.90;;;;;;4922798;29;20048;-64
2022/11/08 03:15:26;;;;;;;14.10;3.83;;;11.50;99.90;;;;;;4921846;29;20056;-64
2022/11/08 03:17:52;;;;;;;12.07;2.83;;;11.50;99.90;;;;;;4922530;29;20096;-64
2022/11/08 03:20:17;;;;;;;15.48;2.50;;;11.60;99.90;;;;;;4921513;29;20064;-63
2022/11/08 03:22:44;;;;;;;11.30;2.85;;;11.60;99.90;;;;;;4922467;29;20104;-63
2022/11/08 03:25:10;;;;;;;11.55;2.75;;;11.50;99.90;;;;;;4905547;29;20075;-64
2022/11/08 03:27:35;;;;;;;8.90;2.90;;;11.50;99.90;;;;;;4922158;29;20071;-63
2022/11/08 03:30:01;;;;;;;11.77;3.55;;;11.40;99.90;;;;;;4922345;29;20064;-63
2022/11/08 03:32:27;;;;;;;12.70;2.58;;;11.40;99.90;;;;;;4921750;29;20076;-64
2022/11/08 03:34:52;;;;;;;17.52;4.30;;;11.60;99.90;;;;;;4922614;29;20115;-64
2022/11/08 03:37:18;;;;;;;12.30;3.25;;;11.30;99.90;;;;;;4921362;29;20055;-64
2022/11/08 03:39:44;;;;;;;12.48;3.60;;;11.30;99.90;;;;;;4922347;29;20040;-65
2022/11/08 03:42:09;;;;;;;10.18;3.00;;;11.50;99.90;;;;;;4921878;29;20048;-63
2022/11/08 03:44:35;;;;;;;16.90;3.28;;;11.40;99.90;;;;;;4921978;29;20048;-63
2022/11/08 03:47:01;;;;;;;14.02;3.20;;;11.30;99.90;;;;;;4922809;29;20036;-63
2022/11/08 03:49:26;;;;;;;9.82;2.92;;;11.20;99.90;;;;;;4920230;29;20048;-64
2022/11/08 03:51:53;;;;;;;12.40;3.05;;;11.20;99.90;;;;;;4901064;29;20056;-64
2022/11/08 03:54:19;;;;;;;12.20;3.10;;;11.30;99.90;;;;;;4905094;29;20532;-63
2022/11/08 03:56:44;;;;;;;10.18;3.13;;;11.40;99.90;;;;;;4907707;29;20057;-63
2022/11/08 03:59:10;;;;;;;7.40;2.70;;;11.40;99.90;;;;;;4922675;29;20048;-63
2022/11/08 04:01:36;;;;;;;10.20;2.80;;;11.30;99.90;;;;;;4925710;29;20040;-64
2022/11/08 04:04:02;;;;;;;10.02;3.65;;;11.30;99.90;;;;;;4926026;29;20100;-63
2022/11/08 04:06:28;;;;;;;12.43;2.85;;;11.10;99.90;;;;;;4918461;29;20051;-64
2022/11/08 04:08:53;;;;;;;8.27;2.70;;;11.10;99.90;;;;;;4890441;29;20053;-64
2022/11/08 04:16:48;;;;;;;12.48;3.00;;;11.00;99.90;;;;;;4907089;29;20101;-64
2022/11/08 04:21:58;;;;;;;14.43;3.42;;;11.10;99.90;;;;;;4907351;29;20056;-62
2022/11/08 04:24:23;;;;;;;13.95;3.47;;;10.90;99.90;;;;;;4902469;29;20052;-62
2022/11/08 04:26:49;;;;;;;13.13;3.15;;;11.10;99.90;;;;;;4925874;29;20048;-64
2022/11/08 04:29:15;;;;;;;9.07;2.90;;;10.80;99.90;;;;;;4925251;29;20077;-63
2022/11/08 04:31:41;;;;;;;10.60;2.88;;;11.00;99.90;;;;;;4907843;29;20179;-64
2022/11/08 04:34:06;;;;;;;11.55;2.90;;;10.90;99.90;;;;;;4907732;29;20076;-63
2022/11/08 04:36:32;;;;;;;12.20;2.85;;;10.80;99.90;;;;;;4924087;29;20048;-63
2022/11/08 04:38:58;;;;;;;8.32;2.97;;;10.90;99.90;;;;;;4925495;29;20463;-63
2022/11/08 04:41:25;;;;;;;10.68;2.75;;;10.90;99.90;;;;;;4923780;29;20048;-64
2022/11/08 04:43:53;;;;;;;11.23;3.28;;;10.80;99.90;;;;;;4925352;29;20048;-63
2022/11/08 04:46:21;;;;;;;11.80;3.60;;;10.70;99.90;;;;;;4907141;29;20044;-63
2022/11/08 04:48:50;;;;;;;12.13;3.42;;;10.90;99.90;;;;;;4907460;29;20048;-63
2022/11/08 04:51:21;;;;;;;10.48;3.22;;;10.70;99.90;;;;;;4908046;29;20434;-64
2022/11/08 04:53:48;;;;;;;11.55;3.17;;;10.80;99.90;;;;;;4923992;29;20064;-64
2022/11/08 04:56:18;;;;;;;6.35;3.10;;;10.70;99.90;;;;;;4925422;29;20112;-63
2022/11/08 04:58:46;;;;;;;10.55;3.45;;;10.90;99.90;;;;;;4924388;29;20048;-64
2022/11/08 05:01:15;;;;;;;16.65;3.42;;;10.70;99.90;;;;;;4924483;29;20079;-64
2022/11/08 05:03:41;;;;;;;11.60;3.00;;;10.80;99.90;;;;;;4907809;29;20052;-63
2022/11/08 05:06:12;;;;;;;11.68;3.58;;;11.00;99.90;;;;;;4924361;29;20048;-64
2022/11/08 05:08:39;;;;;;;7.28;3.08;;;10.90;99.90;;;;;;4924919;29;20080;-63
2022/11/08 05:11:14;;;;;;;8.88;3.30;;;10.90;99.90;;;;;;4906228;29;20041;-64
2022/11/08 05:13:40;;;;;;;8.93;2.90;;;10.80;99.90;;;;;;4925540;29;20040;-64
2022/11/08 05:16:18;;;;;;;10.98;3.38;;;11.00;99.90;;;;;;4924100;29;20040;-64
2022/11/08 05:18:44;;;;;;;10.57;3.00;;;10.80;99.90;;;;;;4907402;29;20076;-64
2022/11/08 05:23:57;;;;;;;11.18;2.88;;;11.00;99.90;;;;;;4923929;29;20051;-64
2022/11/08 05:26:23;;;;;;;12.70;3.40;;;10.90;99.90;;;;;;4925151;29;20040;-63
2022/11/08 05:28:49;;;;;;;9.23;2.97;;;10.80;99.90;;;;;;4923107;29;20072;-63
2022/11/08 05:31:15;;;;;;;9.35;3.08;;;10.90;99.90;;;;;;4906880;29;20055;-63
2022/11/08 05:33:42;;;;;;;7.53;3.00;;;11.00;99.90;;;;;;4924056;29;20067;-63
2022/11/08 05:36:10;;;;;;;10.43;4.03;;;10.90;99.90;;;;;;4906727;29;20052;-64
2022/11/08 05:38:36;;;;;;;9.27;2.58;;;10.80;99.90;;;;;;4924132;29;20048;-63
2022/11/08 05:41:07;;;;;;;12.23;2.85;;;11.00;99.90;;;;;;4923173;29;20047;-63
2022/11/08 05:43:33;;;;;;;11.38;3.67;;;10.80;99.90;;;;;;4907323;29;20341;-62
2022/11/08 05:45:59;;;;;;;9.95;2.90;;;11.00;99.90;;;;;;4906176;29;20470;-64
2022/11/08 05:48:24;;;;;;;8.88;2.60;;;11.00;99.90;;;;;;4924469;29;20047;-63
2022/11/08 05:50:50;;;;;;;8.18;3.15;;;11.00;99.90;;;;;;4923616;29;20040;-64
2022/11/08 05:53:16;;;;;;;9.65;2.90;;;10.80;99.90;;;;;;4923740;29;20055;-64
2022/11/08 05:55:41;;;;;;;9.13;2.90;;;11.10;99.90;;;;;;4924297;29;20048;-63
2022/11/08 05:58:08;;;;;;;8.70;2.60;;;10.70;99.90;;;;;;4912918;29;20099;-63
2022/11/08 06:00:34;;;;;;;16.40;3.55;;;10.90;99.90;;;;;;4905329;29;20100;-64
2022/11/08 06:03:04;;;;;;;9.07;2.70;;;10.80;99.90;;;;;;4902136;29;20144;-63
2022/11/08 06:05:30;;;;;;;9.65;3.03;;;10.90;99.90;;;;;;4901658;29;20063;-63
2022/11/08 06:07:56;;;;;;;8.52;2.80;;;10.70;99.90;;;;;;4900801;29;20147;-62
2022/11/08 06:10:21;;;;;;;9.00;2.78;;;10.90;99.90;;;;;;4900513;29;20084;-63
2022/11/08 06:12:47;;;;;;;9.65;2.70;;;10.70;99.90;;;;;;4900762;29;20049;-63
2022/11/08 06:15:13;;;;;;;11.90;2.83;;;10.90;99.90;;;;;;4898448;29;20076;-63
2022/11/08 06:17:39;;;;;;;7.68;2.40;;;10.60;99.90;;;;;;4919980;29;20055;-64
2022/11/08 06:20:06;;;;;;;8.38;2.42;;;10.60;99.90;;;;;;4902245;29;20059;-64
2022/11/08 06:22:33;;;;;;;10.00;2.58;;;10.60;99.90;;;;;;4920061;29;20048;-64
2022/11/08 06:24:59;;;;;;;10.13;2.47;;;10.80;99.90;;;;;;4902230;29;20079;-64
2022/11/08 06:27:25;;;;;;;9.32;2.70;;;10.60;99.90;;;;;;4918537;29;20052;-64
2022/11/08 06:29:51;;;;;;;8.73;2.80;;;10.70;99.90;;;;;;4919159;29;20040;-64
2022/11/08 06:32:17;;;;;;;9.10;3.03;;;10.70;99.90;;;;;;4917786;29;20040;-64
2022/11/08 06:34:44;;;;;;;11.68;2.70;;;10.70;99.90;;;;;;4919060;29;20521;-64
2022/11/08 06:37:11;;;;;;;5.60;2.17;;;10.60;99.90;;;;;;4917592;29;20067;-64
2022/11/08 06:39:36;;;;;;;7.40;2.67;;;10.80;99.90;;;;;;4917725;29;20040;-64
2022/11/08 06:42:02;;;;;;;10.77;2.53;;;10.80;99.90;;;;;;4918820;29;20054;-64
2022/11/08 06:44:28;;;;;;;11.65;2.63;;;10.80;99.90;;;;;;4886722;29;20048;-64
2022/11/08 06:46:54;;;;;;;10.23;2.80;;;10.80;99.90;;;;;;4919567;29;20599;-64
2022/11/08 06:49:22;;;;;;;11.23;2.83;;;10.60;99.90;;;;;;4901561;29;20315;-64
2022/11/08 06:51:47;;;;;;;8.40;2.45;;;10.70;99.90;;;;;;4919437;29;20194;-64
2022/11/08 06:54:13;;;;;;;7.75;2.35;;;10.70;99.90;;;;;;4918575;29;20489;-64
2022/11/08 06:56:39;;;;;;;8.85;2.60;;;10.70;99.90;;;;;;4919696;29;20044;-64
2022/11/08 06:59:04;;;;;;;10.82;2.92;;;10.70;99.90;;;;;;4901729;29;20079;-64
2022/11/08 07:01:30;;;;;;;13.70;2.38;;;10.70;99.90;;;;;;4902064;29;20051;-64
2022/11/08 07:03:56;;;;;;;8.02;2.35;;;10.70;99.90;;;;;;4901630;29;20044;-64
2022/11/08 07:06:21;;;;;;;8.77;2.83;;;10.80;99.90;;;;;;4918599;29;20100;-64
2022/11/08 07:08:47;;;;;;;8.02;2.20;;;10.70;99.90;;;;;;4919426;29;20052;-63
2022/11/08 07:11:13;;;;;;;9.23;3.13;;;10.90;99.90;;;;;;4900411;29;20156;-63
2022/11/08 07:13:39;;;;;;;10.85;2.80;;;10.80;99.90;;;;;;4919399;29;20048;-63
2022/11/08 07:16:04;;;;;;;10.90;2.42;;;11.10;99.90;;;;;;4918089;29;20067;-63
2022/11/08 07:18:30;;;;;;;12.13;3.35;;;11.00;99.90;;;;;;4918848;29;20557;-64
2022/11/08 07:21:00;;;;;;;11.70;2.60;;;11.00;99.90;;;;;;4918956;29;20040;-64
2022/11/08 07:23:26;;;;;;;9.48;3.00;;;10.90;99.90;;;;;;4917533;29;20084;-63
2022/11/08 07:25:52;;;;;;;10.25;2.88;;;11.00;99.90;;;;;;4918904;29;20052;-64
2022/11/08 07:28:18;;;;;;;10.38;2.92;;;11.10;99.90;;;;;;4917523;29;20514;-65
2022/11/08 07:30:45;;;;;;;12.88;3.10;;;11.10;99.90;;;;;;4919448;29;20052;-64
2022/11/08 07:33:11;;;;;;;8.93;2.63;;;11.10;99.90;;;;;;4918180;29;20123;-65
2022/11/08 07:35:37;;;;;;;10.38;3.03;;;11.20;99.90;;;;;;4902362;29;20106;-64
2022/11/08 07:38:03;;;;;;;10.02;3.20;;;11.20;99.90;;;;;;4919883;29;20092;-65
2022/11/08 07:40:29;;;;;;;9.48;2.83;;;11.30;99.90;;;;;;4901839;29;20468;-64
2022/11/08 07:42:58;;;;;;;9.90;3.30;;;11.20;99.90;;;;;;4921653;29;20059;-64
2022/11/08 07:45:26;;;;;;;10.27;3.33;;;11.30;99.90;;;;;;4921588;29;20472;-64
2022/11/08 07:48:04;;;;;;;10.48;2.97;;;11.30;99.90;;;;;;4905381;29;20497;-63
2022/11/08 07:50:31;;;;;;;9.65;3.00;;;11.30;99.90;;;;;;4904238;29;20059;-63
2022/11/08 07:52:57;;;;;;;10.48;2.80;;;11.30;99.90;;;;;;4922150;29;20047;-63
2022/11/08 07:55:24;;;;;;;8.73;2.90;;;11.40;99.90;;;;;;4922648;29;20052;-64
2022/11/08 07:57:50;;;;;;;7.57;2.90;;;11.50;99.90;;;;;;4921566;29;20461;-64
2022/11/08 08:00:17;;;;;;;8.05;2.90;;;11.40;99.90;;;;;;4906022;29;20373;-64
2022/11/08 08:02:42;;;;;;;10.43;2.88;;;11.50;99.90;;;;;;4921746;29;20055;-64
2022/11/08 08:05:09;;;;;;;10.45;3.35;;;11.60;99.90;;;;;;4923008;29;20048;-63
2022/11/08 08:07:36;;;;;;;10.57;3.13;;;11.60;99.90;;;;;;4921746;29;20043;-64
2022/11/08 08:10:02;;;;;;;10.00;2.80;;;11.70;99.90;;;;;;4922069;29;20108;-64
2022/11/08 08:12:28;;;;;;;6.88;2.50;;;11.60;99.90;;;;;;4922234;29;20103;-64
2022/11/08 08:14:53;;;;;;;6.88;2.65;;;11.70;99.90;;;;;;4921632;29;20052;-64
2022/11/08 08:17:19;;;;;;;10.93;2.67;;;11.80;99.90;;;;;;4890098;29;20055;-63
2022/11/08 08:19:44;;;;;;;7.03;2.38;;;11.70;99.90;;;;;;4921322;29;20116;-63
2022/11/08 08:22:10;;;;;;;8.90;3.25;;;11.80;99.90;;;;;;4922798;29;20072;-64
2022/11/08 08:24:36;;;;;;;8.10;2.92;;;11.80;99.90;;;;;;4904599;29;20044;-61
2022/11/08 08:27:01;;;;;;;8.45;2.53;;;11.80;99.90;;;;;;4922479;29;20497;-64
2022/11/08 08:29:30;;;;;;;8.05;2.58;;;11.80;99.90;;;;;;4922156;29;20523;-63
2022/11/08 08:31:55;;;;;;;8.48;2.42;;;11.80;99.90;;;;;;4904449;29;20044;-64
2022/11/08 08:34:21;;;;;;;10.00;2.60;;;11.80;99.90;;;;;;4874220;29;20393;-64
2022/11/08 08:36:46;;;;;;;9.65;2.80;;;11.80;99.90;;;;;;4923347;29;20215;-64
2022/11/08 08:39:12;;;;;;;7.43;2.50;;;11.80;99.90;;;;;;4926074;29;20036;-63
2022/11/08 08:41:38;;;;;;;9.77;3.05;;;11.80;99.90;;;;;;4924719;29;20032;-63
2022/11/08 08:44:04;;;;;;;6.35;2.40;;;11.90;99.90;;;;;;4925548;29;20048;-64
2022/11/08 08:46:30;;;;;;;7.53;2.47;;;11.90;99.90;;;;;;4908451;29;20083;-64
2022/11/08 08:48:56;;;;;;;7.60;2.65;;;11.90;99.90;;;;;;4924696;29;20493;-64
2022/11/08 08:51:22;;;;;;;7.32;2.58;;;11.90;99.90;;;;;;4925322;29;20048;-64
2022/11/08 08:53:47;;;;;;;6.03;2.03;;;12.00;99.90;;;;;;4924308;29;20048;-65
2022/11/08 08:56:13;;;;;;;9.25;2.83;;;12.00;99.90;;;;;;4908764;29;20044;-64
2022/11/08 08:58:38;;;;;;;8.82;2.42;;;12.00;99.90;;;;;;4893097;29;20072;-64
2022/11/08 09:01:07;;;;;;;6.60;2.42;;;12.10;99.90;;;;;;4906421;29;20055;-63
2022/11/08 09:03:34;;;;;;;7.38;2.58;;;12.10;99.90;;;;;;4905860;29;20041;-63
2022/11/08 09:06:01;;;;;;;7.53;2.72;;;12.10;99.90;;;;;;4905618;29;20128;-63
2022/11/08 09:08:28;;;;;;;7.95;2.38;;;12.20;99.90;;;;;;4889327;29;20068;-63
2022/11/08 09:10:58;;;;;;;8.80;2.92;;;12.20;99.90;;;;;;4905058;29;20373;-63
2022/11/08 09:13:25;;;;;;;8.70;2.55;;;12.20;99.90;;;;;;4889643;29;20053;-60
2022/11/08 09:15:52;;;;;;;10.25;2.80;;;12.30;99.90;;;;;;4905133;29;20080;-63
2022/11/08 09:18:18;;;;;;;6.22;2.40;;;12.40;99.90;;;;;;4906246;29;20048;-64
2022/11/08 09:20:44;;;;;;;7.20;2.22;;;12.40;99.90;;;;;;4905828;29;20431;-63
2022/11/08 09:23:11;;;;;;;7.55;2.10;;;12.40;99.90;;;;;;4905577;29;20105;-63
2022/11/08 09:25:37;;;;;;;7.28;2.38;;;12.40;99.90;;;;;;4905810;29;20044;-63
2022/11/08 09:28:03;;;;;;;7.05;2.53;;;12.50;99.90;;;;;;4905043;29;20092;-63
2022/11/08 09:30:28;;;;;;;6.88;2.63;;;12.50;99.90;;;;;;4906096;29;20076;-63
2022/11/08 09:32:54;;;;;;;9.95;2.72;;;12.50;99.90;;;;;;4904883;29;20107;-63
2022/11/08 09:35:21;;;;;;;7.05;2.28;;;12.50;99.90;;;;;;4905583;29;20088;-63
2022/11/08 09:37:46;;;;;;;6.47;2.72;;;12.50;99.90;;;;;;4888824;29;20048;-62
2022/11/08 09:40:25;;;;;;;6.78;2.38;;;12.60;99.90;;;;;;4905038;29;20107;-63
2022/11/08 09:43:12;;;;;;;9.60;2.97;;;12.70;99.90;;;;;;4905589;29;20044;-63
2022/11/08 09:45:48;;;;;;;6.82;2.13;;;12.70;99.90;;;;;;4904426;29;20132;-63
2022/11/08 09:48:28;;;;;;;5.85;2.30;;;12.80;99.90;;;;;;4888504;29;20037;-63
2022/11/08 09:50:56;;;;;;;6.93;2.13;;;12.80;99.90;;;;;;4905112;29;20048;-62
2022/11/08 09:53:53;;;;;;;7.45;2.13;;;12.90;99.90;;;;;;4904711;29;20056;-63
2022/11/08 09:56:26;;;;;;;7.95;2.20;;;12.90;99.90;;;;;;4905661;29;20060;-64
2022/11/08 09:58:53;;;;;;;8.18;2.53;;;13.00;99.90;;;;;;4903484;29;20555;-63
2022/11/08 10:01:21;;;;;;;8.80;2.55;;;13.00;99.90;;;;;;4924158;29;20145;-63
2022/11/08 10:03:53;;;;;;;6.90;2.33;;;13.00;99.90;;;;;;4924021;29;20040;-64
2022/11/08 10:06:50;;;;;;;6.15;2.10;;;13.00;99.90;;;;;;4923131;29;20067;-63
2022/11/08 10:09:24;;;;;;;6.07;2.33;;;13.00;99.90;;;;;;4924328;29;20048;-63
2022/11/08 10:11:58;;;;;;;6.72;1.98;;;13.00;99.90;;;;;;4923093;29;20054;-63
2022/11/08 10:14:36;;;;;;;6.93;2.30;;;13.00;99.90;;;;;;4923507;29;20070;-63
2022/11/08 10:17:21;;;;;;;8.35;2.60;;;13.10;99.90;;;;;;4906765;29;20048;-64
2022/11/08 10:20:11;;;;;;;8.45;2.47;;;13.10;99.90;;;;;;4922949;29;20047;-63
2022/11/08 10:23:03;;;;;;;8.32;2.50;;;13.10;99.90;;;;;;4923755;29;20044;-65
2022/11/08 10:25:35;;;;;;;;;;;13.20;99.90;;;;;;4907346;29;20412;-63
2022/11/08 10:28:03;;;;;;;6.22;2.75;;;13.20;99.90;;;;;;4922962;29;19967;-65
2022/11/08 10:30:37;;;;;;;7.13;2.15;;;13.20;99.90;;;;;;4924044;29;20056;-64
2022/11/08 10:33:14;;;;;;;7.75;2.33;;;13.20;99.90;;;;;;4922879;29;20048;-63
2022/11/08 10:35:45;;;;;;;8.48;2.67;;;13.30;99.90;;;;;;4905900;29;20059;-63
2022/11/08 10:38:21;;;;;;;6.97;2.15;;;13.30;99.90;;;;;;4923572;29;20044;-63
2022/11/08 10:40:59;;;;;;;5.80;2.33;;;13.30;99.90;;;;;;4922351;29;20052;-63
2022/11/08 10:44:04;;;;;;;5.50;2.30;;;13.30;99.90;;;;;;4923582;29;20047;-64
2022/11/08 10:46:40;;;;;;;6.20;2.97;;;13.20;99.90;;;;;;4911592;29;20052;-63
2022/11/08 10:49:11;;;;;;;8.38;2.45;;;13.20;99.90;;;;;;4922553;29;20076;-63
2022/11/08 10:51:36;;;;;;;6.05;2.88;;;13.20;99.90;;;;;;4923651;29;20048;-63
2022/11/08 10:54:02;;;;;;;8.68;2.58;;;13.20;99.90;;;;;;4922329;29;20119;-64
2022/11/08 10:56:27;;;;;;;6.15;2.60;;;13.10;99.90;;;;;;4923068;29;20044;-64
2022/11/08 10:58:53;;;;;;;7.90;2.38;;;13.20;99.90;;;;;;4904927;29;20043;-63
2022/11/08 11:01:22;;;;;;;5.50;2.13;;;13.20;99.90;;;;;;4905878;29;20104;-63
2022/11/08 11:03:50;;;;;;;8.27;2.60;;;13.20;99.90;;;;;;4905957;29;20063;-63
2022/11/08 11:06:23;;;;;;;5.50;2.20;;;13.30;99.90;;;;;;4922304;29;20050;-63
2022/11/08 11:08:53;;;;;;;8.82;2.33;;;13.30;99.90;;;;;;4923302;29;20044;-63
2022/11/08 11:11:31;;;;;;;8.48;2.33;;;13.40;99.90;;;;;;4921765;29;20055;-64
2022/11/08 11:14:15;;;;;;;6.22;2.15;;;13.40;99.90;;;;;;4923045;29;20084;-64
2022/11/08 11:17:12;;;;;;;8.02;2.35;;;13.50;99.90;;;;;;4922867;29;20071;-63
2022/11/08 11:19:43;;;;;;;7.13;2.40;;;13.50;99.90;;;;;;4921096;29;20060;-64
2022/11/08 11:22:12;;;;;;;6.13;2.08;;;13.50;99.90;;;;;;4923235;29;20080;-64
2022/11/08 11:24:51;;;;;;;7.50;2.50;;;13.60;99.90;;;;;;4922269;29;20080;-63
2022/11/08 11:27:27;;;;;;;7.10;2.20;;;13.50;99.90;;;;;;4922169;29;20557;-65
2022/11/08 11:30:29;;;;;;;6.97;2.10;;;13.60;99.90;;;;;;4923004;29;20052;-64
2022/11/08 11:33:08;;;;;;;5.75;1.88;;;13.60;99.90;;;;;;4921343;29;20052;-64
2022/11/08 11:35:48;;;;;;;6.70;2.40;;;13.70;99.90;;;;;;4922551;29;20095;-64
2022/11/08 11:38:23;;;;;;;10.18;2.22;;;13.80;99.90;;;;;;4922688;29;20123;-64
2022/11/08 11:40:52;;;;;;;7.95;2.20;;;13.80;99.90;;;;;;4904693;29;20064;-64
2022/11/08 11:43:31;;;;;;;6.68;2.00;;;13.80;99.90;;;;;;4922842;29;20044;-64
2022/11/08 11:46:03;;;;;;;5.35;1.83;;;13.80;99.90;;;;;;4921968;29;20485;-64
2022/11/08 11:48:30;;;;;;;6.82;2.28;;;13.80;99.90;;;;;;4922299;29;20397;-63
2022/11/08 11:50:57;;;;;;;8.30;2.28;;;13.90;99.90;;;;;;4905222;29;20063;-64
2022/11/08 11:53:35;;;;;;;7.35;2.10;;;14.00;99.90;;;;;;4921832;29;20040;-64
2022/11/08 11:56:29;;;;;;;6.15;1.92;;;13.90;99.90;;;;;;4906018;29;20075;-64
2022/11/08 11:59:15;;;;;;;5.35;1.88;;;14.00;99.90;;;;;;4905431;29;20056;-64
2022/11/08 12:01:53;;;;;;;6.85;2.20;;;14.00;99.90;;;;;;4903097;29;20060;-64
2022/11/08 12:04:47;;;;;;;5.25;2.00;;;14.10;99.90;;;;;;4887050;29;20048;-64
2022/11/08 12:07:27;;;;;;;6.53;2.20;;;14.20;99.90;;;;;;4902561;29;20040;-64
2022/11/08 12:10:17;;;;;;;7.95;2.20;;;14.10;99.90;;;;;;4903855;29;20141;-64
2022/11/08 12:12:59;;;;;;;6.47;1.85;;;14.20;99.90;;;;;;4906715;29;20076;-64
2022/11/08 12:15:29;;;;;;;6.28;2.08;;;14.20;99.90;;;;;;4905405;29;20465;-64
2022/11/08 12:18:18;;;;;;;5.07;2.08;;;14.20;99.90;;;;;;4905830;29;20041;-64
2022/11/08 12:21:06;;;;;;;8.18;2.17;;;14.20;99.90;;;;;;4891277;29;20101;-64
2022/11/08 12:23:54;;;;;;;7.60;2.15;;;14.10;99.90;;;;;;4905633;29;20107;-64
2022/11/08 12:26:37;;;;;;;6.18;2.75;;;14.10;99.90;;;;;;4907034;29;20049;-64
2022/11/08 12:29:15;;;;;;;5.47;1.70;;;14.10;99.90;;;;;;4926692;29;20054;-63
2022/11/08 12:31:58;;;;;;;6.97;2.22;;;14.10;99.90;;;;;;4940006;29;20084;-63
2022/11/08 12:34:35;;;;;;;4.65;1.80;;;14.10;99.90;;;;;;4934848;29;20063;-64
2022/11/08 12:37:28;;;;;;;6.22;2.00;;;14.10;99.90;;;;;;4926255;29;20082;-63
2022/11/08 12:40:00;;;;;;;6.68;2.25;;;14.10;99.90;;;;;;4926544;29;20048;-63
2022/11/08 12:42:28;;;;;;;5.15;2.00;;;14.20;99.90;;;;;;4926772;29;20051;-63
2022/11/08 12:45:00;;;;;;;6.95;2.10;;;14.20;99.90;;;;;;4943719;29;20048;-64
2022/11/08 12:47:43;;;;;;;8.63;2.40;;;14.20;99.90;;;;;;4944439;29;20051;-63
2022/11/08 12:50:19;;;;;;;7.68;2.05;;;14.20;99.90;;;;;;4943881;29;20047;-64
2022/11/08 12:53:17;;;;;;;5.85;2.00;;;14.30;99.90;;;;;;4936549;29;20535;-63
2022/11/08 12:55:46;;;;;;;6.70;2.08;;;14.20;99.90;;;;;;4924432;29;20048;-63
2022/11/08 12:58:32;;;;;;;6.35;1.98;;;14.20;99.90;;;;;;4901515;29;20505;-63
2022/11/08 13:01:06;;;;;;;6.97;1.95;;;14.20;99.90;;;;;;4923655;29;20068;-63
2022/11/08 13:03:52;;;;;;;5.97;2.33;;;14.20;99.90;;;;;;4922362;29;20092;-64
2022/11/08 13:06:33;;;;;;;5.78;2.30;;;14.10;99.90;;;;;;4906683;29;20099;-63
2022/11/08 13:09:01;;;;;;;6.60;2.00;;;14.20;99.90;;;;;;4907985;29;20051;-63
2022/11/08 13:11:39;;;;;;;7.10;2.00;;;14.20;99.90;;;;;;4923505;29;20044;-63
2022/11/08 13:14:11;;;;;;;7.05;1.98;;;14.20;99.90;;;;;;4922346;29;20497;-63
2022/11/08 13:16:41;;;;;;;7.13;2.10;;;14.20;99.90;;;;;;4924380;29;20068;-63